This is the latest recevied weather packets stored in our database for station/object ZS1OSS-13. If no packets are shown the sender has not sent any weather packets the latest 1 day(s).
| Time | Temp. | Humidity | Pressure | Rain* | Wind** | Luminosity | Snow |
|---|---|---|---|---|---|---|---|
| 1778073665 | 20° C | 67% | 1017.2 hPa | 0 mm | - | 360 W/m² | - |
| 1778072453 | 20° C | 64% | 1016.9 hPa | 0 mm | - | 399 W/m² | - |
| 1778072151 | 20.56° C | 64% | 1016.8 hPa | 0 mm | - | 417 W/m² | - |
| 1778071546 | 20.56° C | 65% | 1017 hPa | 0 mm | - | 442 W/m² | - |
| 1778071244 | 20.56° C | 64% | 1016.7 hPa | 0 mm | - | 370 W/m² | - |
| 1778067009 | 19.44° C | 74% | 1017.3 hPa | 0 mm | - | 641 W/m² | - |
| 1778066403 | 20° C | 73% | 1017.5 hPa | 0 mm | - | 272 W/m² | - |
| 1778066101 | 19.44° C | 73% | 1017.4 hPa | 0 mm | - | 416 W/m² | - |
| 1778065797 | 19.44° C | 74% | 1017.5 hPa | 0 mm | - | 370 W/m² | - |
| 1778064888 | 20° C | 74% | 1017.6 hPa | 0 mm | - | 354 W/m² | - |
| 1778063375 | 18.89° C | 77% | 1017.7 hPa | 0 mm | - | 215 W/m² | - |
| 1778062770 | 18.89° C | 78% | 1017.8 hPa | 0 mm | - | 491 W/m² | - |
| 1778061862 | 18.89° C | 80% | 1018.1 hPa | 0 mm | - | 619 W/m² | - |
| 1778061560 | 18.33° C | 82% | 1018.2 hPa | 0 mm | - | 324 W/m² | - |
| 1778060954 | 18.33° C | 86% | 1018.2 hPa | 0 mm | - | 174 W/m² | - |
| 1778060653 | 17.78° C | 87% | 1018.2 hPa | 0 mm | - | 737 W/m² | - |
| 1778059139 | 17.22° C | 88% | 1018.5 hPa | 0 mm | - | 225 W/m² | - |
| 1778058232 | 17.22° C | 90% | 1018.4 hPa | 0 mm | - | 229 W/m² | - |
| 1778057929 | 16.67° C | 92% | 1018.6 hPa | 0 mm | - | 278 W/m² | - |
| 1778057625 | 16.67° C | 92% | 1018.4 hPa | 0 mm | - | 116 W/m² | - |
| 1778057321 | 16.67° C | 93% | 1018.4 hPa | 0 mm | - | 121 W/m² | - |
| 1778056715 | 16.11° C | 93% | 1018.6 hPa | 0 mm | - | 160 W/m² | - |
| 1778056110 | 16.11° C | 93% | 1018.3 hPa | 1.27 mm | - | 71 W/m² | - |
| 1778055806 | 16.11° C | 92% | 1018.4 hPa | 3.05 mm | - | 45 W/m² | - |
| 1778055502 | 15.56° C | 92% | 1018.2 hPa | 3.05 mm | - | 96 W/m² | - |
* Rain latest hour (hover to see other rain measurements)
** Current wind speed in m/s (hover to see current wind gust speed)